sensor_id;sensor_type;location;lat;lon;timestamp;P1;durP1;ratioP1;P2;durP2;ratioP2
549;SDS011;20066;48.764;9.176;2024-03-06T00:02:01;9.30;;;4.95;;
549;SDS011;20066;48.764;9.176;2024-03-06T00:04:30;8.70;;;5.40;;
549;SDS011;20066;48.764;9.176;2024-03-06T00:06:58;9.93;;;4.30;;
549;SDS011;20066;48.764;9.176;2024-03-06T00:09:27;9.98;;;4.55;;
549;SDS011;20066;48.764;9.176;2024-03-06T00:11:57;7.40;;;3.67;;
549;SDS011;20066;48.764;9.176;2024-03-06T00:14:26;8.25;;;4.35;;
549;SDS011;20066;48.764;9.176;2024-03-06T00:16:55;7.80;;;4.10;;
549;SDS011;20066;48.764;9.176;2024-03-06T00:19:23;8.00;;;4.07;;
549;SDS011;20066;48.764;9.176;2024-03-06T00:21:51;8.15;;;3.80;;
549;SDS011;20066;48.764;9.176;2024-03-06T00:24:20;5.50;;;3.60;;
549;SDS011;20066;48.764;9.176;2024-03-06T00:26:49;11.45;;;4.55;;
549;SDS011;20066;48.764;9.176;2024-03-06T00:29:19;7.15;;;4.10;;
549;SDS011;20066;48.764;9.176;2024-03-06T00:31:47;6.45;;;3.80;;
549;SDS011;20066;48.764;9.176;2024-03-06T00:34:15;9.02;;;4.60;;
549;SDS011;20066;48.764;9.176;2024-03-06T00:36:43;7.80;;;3.85;;
549;SDS011;20066;48.764;9.176;2024-03-06T00:39:11;5.97;;;3.50;;
549;SDS011;20066;48.764;9.176;2024-03-06T00:41:40;5.70;;;3.45;;
549;SDS011;20066;48.764;9.176;2024-03-06T00:44:08;7.53;;;3.35;;
549;SDS011;20066;48.764;9.176;2024-03-06T00:46:39;5.65;;;3.58;;
549;SDS011;20066;48.764;9.176;2024-03-06T00:49:08;7.90;;;3.90;;
549;SDS011;20066;48.764;9.176;2024-03-06T00:51:36;10.40;;;4.35;;
549;SDS011;20066;48.764;9.176;2024-03-06T00:54:14;5.80;;;3.35;;
549;SDS011;20066;48.764;9.176;2024-03-06T00:56:43;8.75;;;3.80;;
549;SDS011;20066;48.764;9.176;2024-03-06T00:59:11;5.10;;;3.15;;
549;SDS011;20066;48.764;9.176;2024-03-06T01:01:41;7.40;;;3.60;;
549;SDS011;20066;48.764;9.176;2024-03-06T01:04:10;4.72;;;3.35;;
549;SDS011;20066;48.764;9.176;2024-03-06T01:06:38;6.72;;;3.38;;
549;SDS011;20066;48.764;9.176;2024-03-06T01:09:07;7.90;;;3.80;;
549;SDS011;20066;48.764;9.176;2024-03-06T01:11:36;7.90;;;3.88;;
549;SDS011;20066;48.764;9.176;2024-03-06T01:14:05;10.77;;;4.05;;
549;SDS011;20066;48.764;9.176;2024-03-06T01:16:33;8.13;;;3.53;;
549;SDS011;20066;48.764;9.176;2024-03-06T01:19:03;6.18;;;3.53;;
549;SDS011;20066;48.764;9.176;2024-03-06T01:21:31;5.28;;;3.38;;
549;SDS011;20066;48.764;9.176;2024-03-06T01:24:02;6.68;;;3.40;;
549;SDS011;20066;48.764;9.176;2024-03-06T01:26:30;5.80;;;4.20;;
549;SDS011;20066;48.764;9.176;2024-03-06T01:28:58;6.70;;;3.53;;
549;SDS011;20066;48.764;9.176;2024-03-06T01:31:26;4.75;;;3.10;;
549;SDS011;20066;48.764;9.176;2024-03-06T01:33:54;6.15;;;3.20;;
549;SDS011;20066;48.764;9.176;2024-03-06T01:36:23;5.18;;;3.42;;
549;SDS011;20066;48.764;9.176;2024-03-06T01:38:51;7.10;;;3.35;;
549;SDS011;20066;48.764;9.176;2024-03-06T01:41:19;6.20;;;3.58;;
549;SDS011;20066;48.764;9.176;2024-03-06T01:43:49;8.48;;;3.63;;
549;SDS011;20066;48.764;9.176;2024-03-06T01:46:17;7.38;;;3.60;;
549;SDS011;20066;48.764;9.176;2024-03-06T01:48:45;7.03;;;4.32;;
549;SDS011;20066;48.764;9.176;2024-03-06T01:51:14;6.68;;;3.50;;
549;SDS011;20066;48.764;9.176;2024-03-06T01:53:44;6.93;;;3.50;;
549;SDS011;20066;48.764;9.176;2024-03-06T01:56:12;4.35;;;2.80;;
549;SDS011;20066;48.764;9.176;2024-03-06T01:58:44;8.00;;;4.07;;
549;SDS011;20066;48.764;9.176;2024-03-06T02:01:14;5.25;;;3.33;;
549;SDS011;20066;48.764;9.176;2024-03-06T02:03:44;5.72;;;3.08;;
549;SDS011;20066;48.764;9.176;2024-03-06T02:06:14;8.00;;;3.92;;
549;SDS011;20066;48.764;9.176;2024-03-06T02:08:47;5.82;;;3.63;;
549;SDS011;20066;48.764;9.176;2024-03-06T02:11:16;5.25;;;3.50;;
549;SDS011;20066;48.764;9.176;2024-03-06T02:13:44;8.38;;;4.00;;
549;SDS011;20066;48.764;9.176;2024-03-06T02:16:15;5.45;;;3.42;;
549;SDS011;20066;48.764;9.176;2024-03-06T02:18:53;5.95;;;3.47;;
549;SDS011;20066;48.764;9.176;2024-03-06T02:21:23;6.07;;;3.40;;
549;SDS011;20066;48.764;9.176;2024-03-06T02:23:52;6.07;;;3.38;;
549;SDS011;20066;48.764;9.176;2024-03-06T02:26:20;9.63;;;3.10;;
549;SDS011;20066;48.764;9.176;2024-03-06T02:28:49;7.57;;;3.88;;
549;SDS011;20066;48.764;9.176;2024-03-06T02:31:18;5.18;;;3.30;;
549;SDS011;20066;48.764;9.176;2024-03-06T02:33:47;4.55;;;3.38;;
549;SDS011;20066;48.764;9.176;2024-03-06T02:36:17;8.48;;;3.53;;
549;SDS011;20066;48.764;9.176;2024-03-06T02:38:46;5.28;;;2.80;;
549;SDS011;20066;48.764;9.176;2024-03-06T02:41:16;6.18;;;3.50;;
549;SDS011;20066;48.764;9.176;2024-03-06T02:43:44;6.93;;;3.83;;
549;SDS011;20066;48.764;9.176;2024-03-06T02:46:13;6.03;;;3.60;;
549;SDS011;20066;48.764;9.176;2024-03-06T02:48:41;7.40;;;3.90;;
549;SDS011;20066;48.764;9.176;2024-03-06T02:51:10;4.03;;;2.92;;
549;SDS011;20066;48.764;9.176;2024-03-06T02:53:37;9.90;;;4.00;;
549;SDS011;20066;48.764;9.176;2024-03-06T02:56:07;8.50;;;4.80;;
549;SDS011;20066;48.764;9.176;2024-03-06T02:58:35;8.50;;;4.70;;
549;SDS011;20066;48.764;9.176;2024-03-06T03:01:04;9.07;;;4.50;;
549;SDS011;20066;48.764;9.176;2024-03-06T03:03:31;6.85;;;4.35;;
549;SDS011;20066;48.764;9.176;2024-03-06T03:06:00;8.57;;;4.60;;
549;SDS011;20066;48.764;9.176;2024-03-06T03:08:28;6.93;;;4.18;;
549;SDS011;20066;48.764;9.176;2024-03-06T03:10:56;7.03;;;4.47;;
549;SDS011;20066;48.764;9.176;2024-03-06T03:13:26;8.18;;;4.30;;
549;SDS011;20066;48.764;9.176;2024-03-06T03:15:54;5.70;;;4.10;;
549;SDS011;20066;48.764;9.176;2024-03-06T03:18:22;6.40;;;4.15;;
549;SDS011;20066;48.764;9.176;2024-03-06T03:20:50;7.30;;;4.88;;
549;SDS011;20066;48.764;9.176;2024-03-06T03:23:18;7.18;;;4.13;;
549;SDS011;20066;48.764;9.176;2024-03-06T03:25:48;7.85;;;4.38;;
549;SDS011;20066;48.764;9.176;2024-03-06T03:28:17;9.20;;;5.00;;
549;SDS011;20066;48.764;9.176;2024-03-06T03:30:46;9.38;;;5.78;;
549;SDS011;20066;48.764;9.176;2024-03-06T03:33:15;8.35;;;4.95;;
549;SDS011;20066;48.764;9.176;2024-03-06T03:35:43;11.13;;;5.53;;
549;SDS011;20066;48.764;9.176;2024-03-06T03:38:10;11.57;;;5.05;;
549;SDS011;20066;48.764;9.176;2024-03-06T03:40:39;9.57;;;5.20;;
549;SDS011;20066;48.764;9.176;2024-03-06T03:43:07;8.57;;;5.30;;
549;SDS011;20066;48.764;9.176;2024-03-06T03:45:36;9.98;;;4.90;;
549;SDS011;20066;48.764;9.176;2024-03-06T03:48:06;7.38;;;5.30;;
549;SDS011;20066;48.764;9.176;2024-03-06T03:50:34;8.85;;;5.05;;
549;SDS011;20066;48.764;9.176;2024-03-06T03:53:05;9.00;;;4.97;;
549;SDS011;20066;48.764;9.176;2024-03-06T03:55:34;9.40;;;4.82;;
549;SDS011;20066;48.764;9.176;2024-03-06T03:58:03;8.82;;;5.65;;
549;SDS011;20066;48.764;9.176;2024-03-06T04:00:33;6.70;;;4.70;;
549;SDS011;20066;48.764;9.176;2024-03-06T04:03:02;9.38;;;5.15;;
549;SDS011;20066;48.764;9.176;2024-03-06T04:05:33;7.82;;;4.25;;
549;SDS011;20066;48.764;9.176;2024-03-06T04:08:01;11.90;;;5.03;;
549;SDS011;20066;48.764;9.176;2024-03-06T04:10:31;7.05;;;4.90;;
549;SDS011;20066;48.764;9.176;2024-03-06T04:12:59;8.65;;;4.72;;
549;SDS011;20066;48.764;9.176;2024-03-06T04:15:27;5.32;;;3.75;;
549;SDS011;20066;48.764;9.176;2024-03-06T04:17:55;6.75;;;4.13;;
549;SDS011;20066;48.764;9.176;2024-03-06T04:20:23;8.35;;;4.10;;
549;SDS011;20066;48.764;9.176;2024-03-06T04:22:54;5.32;;;3.80;;
549;SDS011;20066;48.764;9.176;2024-03-06T04:25:23;4.70;;;3.75;;
549;SDS011;20066;48.764;9.176;2024-03-06T04:27:51;6.95;;;3.80;;
549;SDS011;20066;48.764;9.176;2024-03-06T04:30:20;7.57;;;3.15;;
549;SDS011;20066;48.764;9.176;2024-03-06T04:32:48;6.97;;;3.60;;
549;SDS011;20066;48.764;9.176;2024-03-06T04:35:17;5.97;;;3.55;;
549;SDS011;20066;48.764;9.176;2024-03-06T04:37:46;8.25;;;4.50;;
549;SDS011;20066;48.764;9.176;2024-03-06T04:40:16;7.07;;;4.55;;
549;SDS011;20066;48.764;9.176;2024-03-06T04:42:45;8.40;;;3.75;;
549;SDS011;20066;48.764;9.176;2024-03-06T04:45:15;5.22;;;3.58;;
549;SDS011;20066;48.764;9.176;2024-03-06T04:47:43;9.13;;;4.65;;
549;SDS011;20066;48.764;9.176;2024-03-06T04:50:12;7.32;;;4.10;;
549;SDS011;20066;48.764;9.176;2024-03-06T04:52:41;7.97;;;5.07;;
549;SDS011;20066;48.764;9.176;2024-03-06T04:55:11;8.00;;;4.47;;
549;SDS011;20066;48.764;9.176;2024-03-06T04:57:43;9.35;;;4.80;;
549;SDS011;20066;48.764;9.176;2024-03-06T05:00:11;5.20;;;3.80;;
549;SDS011;20066;48.764;9.176;2024-03-06T05:02:40;6.28;;;4.15;;
549;SDS011;20066;48.764;9.176;2024-03-06T05:05:27;7.03;;;4.38;;
549;SDS011;20066;48.764;9.176;2024-03-06T05:08:13;9.82;;;4.53;;
549;SDS011;20066;48.764;9.176;2024-03-06T05:10:59;6.53;;;4.45;;
549;SDS011;20066;48.764;9.176;2024-03-06T05:13:47;7.78;;;4.35;;
549;SDS011;20066;48.764;9.176;2024-03-06T05:16:33;8.05;;;4.55;;
549;SDS011;20066;48.764;9.176;2024-03-06T05:19:19;8.88;;;4.75;;
549;SDS011;20066;48.764;9.176;2024-03-06T05:22:05;8.75;;;4.88;;
549;SDS011;20066;48.764;9.176;2024-03-06T05:24:51;10.38;;;5.15;;
549;SDS011;20066;48.764;9.176;2024-03-06T05:27:37;13.00;;;5.30;;
549;SDS011;20066;48.764;9.176;2024-03-06T05:30:24;11.00;;;5.30;;
549;SDS011;20066;48.764;9.176;2024-03-06T05:33:10;21.75;;;9.10;;
549;SDS011;20066;48.764;9.176;2024-03-06T05:35:56;8.57;;;5.13;;
549;SDS011;20066;48.764;9.176;2024-03-06T05:38:41;25.38;;;11.77;;
549;SDS011;20066;48.764;9.176;2024-03-06T05:41:27;17.52;;;8.07;;
549;SDS011;20066;48.764;9.176;2024-03-06T05:44:12;18.27;;;8.15;;
549;SDS011;20066;48.764;9.176;2024-03-06T05:46:59;26.90;;;10.63;;
549;SDS011;20066;48.764;9.176;2024-03-06T05:49:47;15.95;;;7.57;;
549;SDS011;20066;48.764;9.176;2024-03-06T05:52:33;13.65;;;7.68;;
549;SDS011;20066;48.764;9.176;2024-03-06T05:55:19;25.08;;;13.63;;
549;SDS011;20066;48.764;9.176;2024-03-06T05:58:04;21.75;;;8.10;;
549;SDS011;20066;48.764;9.176;2024-03-06T06:00:39;25.98;;;7.60;;
549;SDS011;20066;48.764;9.176;2024-03-06T06:03:10;11.65;;;4.75;;
549;SDS011;20066;48.764;9.176;2024-03-06T06:05:39;9.93;;;5.75;;
549;SDS011;20066;48.764;9.176;2024-03-06T06:08:12;13.98;;;6.20;;
549;SDS011;20066;48.764;9.176;2024-03-06T06:10:40;9.85;;;5.50;;
549;SDS011;20066;48.764;9.176;2024-03-06T06:13:08;12.38;;;7.03;;
549;SDS011;20066;48.764;9.176;2024-03-06T06:15:36;10.85;;;5.95;;
549;SDS011;20066;48.764;9.176;2024-03-06T06:18:05;13.55;;;6.70;;
549;SDS011;20066;48.764;9.176;2024-03-06T06:20:34;12.38;;;6.78;;
549;SDS011;20066;48.764;9.176;2024-03-06T06:23:03;16.95;;;6.60;;
549;SDS011;20066;48.764;9.176;2024-03-06T06:25:32;12.40;;;6.65;;
549;SDS011;20066;48.764;9.176;2024-03-06T06:28:00;13.80;;;7.47;;
549;SDS011;20066;48.764;9.176;2024-03-06T06:30:29;13.13;;;6.45;;
549;SDS011;20066;48.764;9.176;2024-03-06T06:32:57;13.65;;;6.55;;
549;SDS011;20066;48.764;9.176;2024-03-06T06:35:25;14.20;;;6.80;;
549;SDS011;20066;48.764;9.176;2024-03-06T06:37:55;22.13;;;7.18;;
549;SDS011;20066;48.764;9.176;2024-03-06T06:40:23;12.68;;;6.55;;
549;SDS011;20066;48.764;9.176;2024-03-06T06:42:51;17.00;;;6.25;;
549;SDS011;20066;48.764;9.176;2024-03-06T06:45:20;13.38;;;6.90;;
549;SDS011;20066;48.764;9.176;2024-03-06T06:47:50;15.13;;;7.88;;
549;SDS011;20066;48.764;9.176;2024-03-06T06:50:20;15.40;;;7.60;;
549;SDS011;20066;48.764;9.176;2024-03-06T06:52:52;15.65;;;7.82;;
549;SDS011;20066;48.764;9.176;2024-03-06T06:55:22;17.50;;;6.80;;
549;SDS011;20066;48.764;9.176;2024-03-06T06:57:51;15.88;;;6.65;;
549;SDS011;20066;48.764;9.176;2024-03-06T07:00:19;16.23;;;6.38;;
549;SDS011;20066;48.764;9.176;2024-03-06T07:02:49;16.35;;;6.20;;
549;SDS011;20066;48.764;9.176;2024-03-06T07:05:20;11.68;;;6.15;;
549;SDS011;20066;48.764;9.176;2024-03-06T07:07:48;12.90;;;6.60;;
549;SDS011;20066;48.764;9.176;2024-03-06T07:10:22;13.00;;;6.00;;
549;SDS011;20066;48.764;9.176;2024-03-06T07:12:50;12.95;;;6.63;;
549;SDS011;20066;48.764;9.176;2024-03-06T07:15:18;14.80;;;6.70;;
549;SDS011;20066;48.764;9.176;2024-03-06T07:17:46;12.68;;;6.07;;
549;SDS011;20066;48.764;9.176;2024-03-06T07:20:15;12.60;;;6.55;;
549;SDS011;20066;48.764;9.176;2024-03-06T07:22:43;13.68;;;6.43;;
549;SDS011;20066;48.764;9.176;2024-03-06T07:25:11;10.60;;;5.70;;
549;SDS011;20066;48.764;9.176;2024-03-06T07:27:41;14.48;;;7.00;;
549;SDS011;20066;48.764;9.176;2024-03-06T07:30:09;13.43;;;6.80;;
549;SDS011;20066;48.764;9.176;2024-03-06T07:32:40;18.15;;;8.57;;
549;SDS011;20066;48.764;9.176;2024-03-06T07:35:09;15.18;;;7.47;;
549;SDS011;20066;48.764;9.176;2024-03-06T07:37:38;14.43;;;6.60;;
549;SDS011;20066;48.764;9.176;2024-03-06T07:40:07;19.02;;;6.45;;
549;SDS011;20066;48.764;9.176;2024-03-06T07:42:36;14.80;;;6.95;;
549;SDS011;20066;48.764;9.176;2024-03-06T07:45:07;12.55;;;6.53;;
549;SDS011;20066;48.764;9.176;2024-03-06T07:47:36;15.63;;;7.47;;
549;SDS011;20066;48.764;9.176;2024-03-06T07:50:05;10.30;;;6.05;;
549;SDS011;20066;48.764;9.176;2024-03-06T07:52:53;15.57;;;7.00;;
549;SDS011;20066;48.764;9.176;2024-03-06T07:55:23;12.77;;;6.55;;
549;SDS011;20066;48.764;9.176;2024-03-06T07:57:50;21.05;;;7.60;;
549;SDS011;20066;48.764;9.176;2024-03-06T08:00:23;15.98;;;7.75;;
549;SDS011;20066;48.764;9.176;2024-03-06T08:02:53;14.10;;;7.05;;
549;SDS011;20066;48.764;9.176;2024-03-06T08:05:21;14.93;;;7.32;;
549;SDS011;20066;48.764;9.176;2024-03-06T08:07:49;13.27;;;6.40;;
549;SDS011;20066;48.764;9.176;2024-03-06T08:10:18;13.95;;;7.30;;
549;SDS011;20066;48.764;9.176;2024-03-06T08:12:46;18.83;;;7.95;;
549;SDS011;20066;48.764;9.176;2024-03-06T08:15:14;15.13;;;7.78;;
549;SDS011;20066;48.764;9.176;2024-03-06T08:17:43;17.33;;;7.80;;
549;SDS011;20066;48.764;9.176;2024-03-06T08:20:12;16.50;;;6.53;;
549;SDS011;20066;48.764;9.176;2024-03-06T08:22:40;14.55;;;6.90;;
549;SDS011;20066;48.764;9.176;2024-03-06T08:25:10;13.80;;;6.45;;
549;SDS011;20066;48.764;9.176;2024-03-06T08:27:40;15.20;;;6.32;;
549;SDS011;20066;48.764;9.176;2024-03-06T08:30:08;13.85;;;5.75;;
549;SDS011;20066;48.764;9.176;2024-03-06T08:32:37;14.90;;;6.90;;
549;SDS011;20066;48.764;9.176;2024-03-06T08:35:07;12.18;;;5.97;;
549;SDS011;20066;48.764;9.176;2024-03-06T08:37:38;12.52;;;6.60;;
549;SDS011;20066;48.764;9.176;2024-03-06T08:40:08;12.50;;;6.13;;
549;SDS011;20066;48.764;9.176;2024-03-06T08:42:41;19.25;;;6.57;;
549;SDS011;20066;48.764;9.176;2024-03-06T08:45:09;15.15;;;7.20;;
549;SDS011;20066;48.764;9.176;2024-03-06T08:47:38;12.90;;;6.35;;
549;SDS011;20066;48.764;9.176;2024-03-06T08:50:08;11.77;;;7.10;;
549;SDS011;20066;48.764;9.176;2024-03-06T08:52:36;12.00;;;7.47;;
549;SDS011;20066;48.764;9.176;2024-03-06T08:55:05;12.40;;;7.03;;
549;SDS011;20066;48.764;9.176;2024-03-06T08:57:34;13.50;;;7.15;;
549;SDS011;20066;48.764;9.176;2024-03-06T09:00:03;12.82;;;6.07;;
549;SDS011;20066;48.764;9.176;2024-03-06T09:02:35;15.43;;;6.75;;
549;SDS011;20066;48.764;9.176;2024-03-06T09:05:03;13.40;;;7.00;;
549;SDS011;20066;48.764;9.176;2024-03-06T09:07:33;14.10;;;7.65;;
549;SDS011;20066;48.764;9.176;2024-03-06T09:10:04;12.50;;;7.10;;
549;SDS011;20066;48.764;9.176;2024-03-06T09:12:33;12.05;;;7.07;;
549;SDS011;20066;48.764;9.176;2024-03-06T09:15:01;14.07;;;7.60;;
549;SDS011;20066;48.764;9.176;2024-03-06T09:17:30;11.07;;;7.25;;
549;SDS011;20066;48.764;9.176;2024-03-06T09:19:58;16.02;;;7.40;;
549;SDS011;20066;48.764;9.176;2024-03-06T09:22:38;11.80;;;8.35;;
549;SDS011;20066;48.764;9.176;2024-03-06T09:25:06;12.85;;;7.63;;
549;SDS011;20066;48.764;9.176;2024-03-06T09:27:35;16.17;;;7.85;;
549;SDS011;20066;48.764;9.176;2024-03-06T09:30:03;15.80;;;8.10;;
549;SDS011;20066;48.764;9.176;2024-03-06T09:32:32;13.35;;;7.85;;
549;SDS011;20066;48.764;9.176;2024-03-06T09:35:00;15.05;;;6.88;;
549;SDS011;20066;48.764;9.176;2024-03-06T09:37:29;14.50;;;8.02;;
549;SDS011;20066;48.764;9.176;2024-03-06T09:39:58;12.68;;;7.10;;
549;SDS011;20066;48.764;9.176;2024-03-06T09:42:26;12.88;;;7.25;;
549;SDS011;20066;48.764;9.176;2024-03-06T09:44:54;15.32;;;8.15;;
549;SDS011;20066;48.764;9.176;2024-03-06T09:47:22;14.40;;;7.15;;
549;SDS011;20066;48.764;9.176;2024-03-06T09:49:52;10.13;;;7.13;;
549;SDS011;20066;48.764;9.176;2024-03-06T09:52:21;13.20;;;7.78;;
549;SDS011;20066;48.764;9.176;2024-03-06T09:54:51;12.75;;;8.40;;
549;SDS011;20066;48.764;9.176;2024-03-06T09:57:23;18.73;;;9.48;;
549;SDS011;20066;48.764;9.176;2024-03-06T09:59:51;22.02;;;10.20;;
549;SDS011;20066;48.764;9.176;2024-03-06T10:02:21;15.90;;;9.38;;
549;SDS011;20066;48.764;9.176;2024-03-06T10:04:58;17.45;;;9.82;;
549;SDS011;20066;48.764;9.176;2024-03-06T10:07:25;19.65;;;10.50;;
549;SDS011;20066;48.764;9.176;2024-03-06T10:09:54;19.80;;;10.05;;
549;SDS011;20066;48.764;9.176;2024-03-06T10:12:24;18.98;;;10.80;;
549;SDS011;20066;48.764;9.176;2024-03-06T10:14:56;18.10;;;11.40;;
549;SDS011;20066;48.764;9.176;2024-03-06T10:17:24;17.75;;;10.90;;
549;SDS011;20066;48.764;9.176;2024-03-06T10:19:54;16.35;;;10.55;;
549;SDS011;20066;48.764;9.176;2024-03-06T10:22:25;18.23;;;11.48;;
549;SDS011;20066;48.764;9.176;2024-03-06T10:24:54;28.15;;;11.40;;
549;SDS011;20066;48.764;9.176;2024-03-06T10:27:22;19.23;;;10.98;;
549;SDS011;20066;48.764;9.176;2024-03-06T10:30:01;17.77;;;10.55;;
549;SDS011;20066;48.764;9.176;2024-03-06T10:32:31;19.48;;;11.68;;
549;SDS011;20066;48.764;9.176;2024-03-06T10:35:00;17.70;;;10.63;;
549;SDS011;20066;48.764;9.176;2024-03-06T10:37:28;18.20;;;11.30;;
549;SDS011;20066;48.764;9.176;2024-03-06T10:39:56;17.45;;;11.73;;
549;SDS011;20066;48.764;9.176;2024-03-06T10:42:32;18.67;;;11.40;;
549;SDS011;20066;48.764;9.176;2024-03-06T10:45:02;23.67;;;14.93;;
549;SDS011;20066;48.764;9.176;2024-03-06T10:47:33;21.05;;;15.07;;
549;SDS011;20066;48.764;9.176;2024-03-06T10:50:03;21.70;;;14.95;;
549;SDS011;20066;48.764;9.176;2024-03-06T10:52:36;23.38;;;15.38;;
549;SDS011;20066;48.764;9.176;2024-03-06T10:55:06;23.98;;;16.02;;
549;SDS011;20066;48.764;9.176;2024-03-06T10:57:36;26.42;;;16.70;;
549;SDS011;20066;48.764;9.176;2024-03-06T11:00:06;26.10;;;16.20;;
549;SDS011;20066;48.764;9.176;2024-03-06T11:02:35;22.13;;;13.40;;
549;SDS011;20066;48.764;9.176;2024-03-06T11:05:05;24.17;;;14.40;;
549;SDS011;20066;48.764;9.176;2024-03-06T11:07:35;27.98;;;15.13;;
549;SDS011;20066;48.764;9.176;2024-03-06T11:10:04;24.63;;;14.45;;
549;SDS011;20066;48.764;9.176;2024-03-06T11:12:34;28.25;;;15.82;;
549;SDS011;20066;48.764;9.176;2024-03-06T11:15:12;24.85;;;14.07;;
549;SDS011;20066;48.764;9.176;2024-03-06T11:17:41;24.33;;;14.32;;
549;SDS011;20066;48.764;9.176;2024-03-06T11:23:03;27.05;;;16.20;;
549;SDS011;20066;48.764;9.176;2024-03-06T11:25:59;30.50;;;15.85;;
549;SDS011;20066;48.764;9.176;2024-03-06T11:28:30;26.40;;;15.90;;
549;SDS011;20066;48.764;9.176;2024-03-06T11:31:01;26.05;;;14.93;;
549;SDS011;20066;48.764;9.176;2024-03-06T11:33:36;29.85;;;16.90;;
549;SDS011;20066;48.764;9.176;2024-03-06T11:36:19;31.15;;;18.15;;
549;SDS011;20066;48.764;9.176;2024-03-06T11:38:50;34.00;;;18.30;;
549;SDS011;20066;48.764;9.176;2024-03-06T11:41:20;40.50;;;17.55;;
549;SDS011;20066;48.764;9.176;2024-03-06T11:43:52;36.00;;;20.20;;
549;SDS011;20066;48.764;9.176;2024-03-06T11:49:16;35.08;;;18.52;;
549;SDS011;20066;48.764;9.176;2024-03-06T11:51:47;43.47;;;20.45;;
549;SDS011;20066;48.764;9.176;2024-03-06T11:54:15;38.83;;;18.73;;
549;SDS011;20066;48.764;9.176;2024-03-06T11:56:44;41.70;;;18.60;;
549;SDS011;20066;48.764;9.176;2024-03-06T11:59:14;39.97;;;20.05;;
549;SDS011;20066;48.764;9.176;2024-03-06T12:01:43;36.65;;;19.00;;
549;SDS011;20066;48.764;9.176;2024-03-06T12:04:13;40.58;;;20.30;;
549;SDS011;20066;48.764;9.176;2024-03-06T12:06:41;42.88;;;20.65;;
549;SDS011;20066;48.764;9.176;2024-03-06T12:09:09;35.40;;;19.52;;
549;SDS011;20066;48.764;9.176;2024-03-06T12:11:38;37.38;;;18.65;;
549;SDS011;20066;48.764;9.176;2024-03-06T12:14:06;44.58;;;21.25;;
549;SDS011;20066;48.764;9.176;2024-03-06T12:16:36;39.45;;;20.42;;
549;SDS011;20066;48.764;9.176;2024-03-06T12:19:05;44.83;;;20.75;;
549;SDS011;20066;48.764;9.176;2024-03-06T12:21:34;40.90;;;20.85;;
549;SDS011;20066;48.764;9.176;2024-03-06T12:24:02;38.65;;;21.30;;
549;SDS011;20066;48.764;9.176;2024-03-06T12:26:31;45.33;;;21.60;;
549;SDS011;20066;48.764;9.176;2024-03-06T12:29:06;42.58;;;20.40;;
549;SDS011;20066;48.764;9.176;2024-03-06T12:31:34;42.53;;;21.50;;
549;SDS011;20066;48.764;9.176;2024-03-06T12:34:03;41.80;;;21.40;;
549;SDS011;20066;48.764;9.176;2024-03-06T12:36:33;36.70;;;19.80;;
549;SDS011;20066;48.764;9.176;2024-03-06T12:39:02;36.05;;;19.50;;
549;SDS011;20066;48.764;9.176;2024-03-06T12:41:39;42.97;;;20.15;;
549;SDS011;20066;48.764;9.176;2024-03-06T12:44:07;40.08;;;20.15;;
549;SDS011;20066;48.764;9.176;2024-03-06T12:46:35;39.88;;;20.60;;
549;SDS011;20066;48.764;9.176;2024-03-06T12:49:03;39.50;;;19.50;;
549;SDS011;20066;48.764;9.176;2024-03-06T12:51:33;36.97;;;20.35;;
549;SDS011;20066;48.764;9.176;2024-03-06T12:54:01;45.63;;;21.50;;
549;SDS011;20066;48.764;9.176;2024-03-06T12:56:29;38.45;;;20.63;;
549;SDS011;20066;48.764;9.176;2024-03-06T12:58:57;43.22;;;21.85;;
549;SDS011;20066;48.764;9.176;2024-03-06T13:01:26;42.92;;;21.45;;
549;SDS011;20066;48.764;9.176;2024-03-06T13:03:54;38.80;;;20.67;;
549;SDS011;20066;48.764;9.176;2024-03-06T13:06:33;38.40;;;20.77;;
549;SDS011;20066;48.764;9.176;2024-03-06T13:09:01;43.67;;;19.98;;
549;SDS011;20066;48.764;9.176;2024-03-06T13:11:29;44.30;;;21.23;;
549;SDS011;20066;48.764;9.176;2024-03-06T13:13:58;42.08;;;20.20;;
549;SDS011;20066;48.764;9.176;2024-03-06T13:16:27;39.80;;;19.30;;
549;SDS011;20066;48.764;9.176;2024-03-06T13:18:55;40.35;;;20.15;;
549;SDS011;20066;48.764;9.176;2024-03-06T13:21:23;44.72;;;20.27;;
549;SDS011;20066;48.764;9.176;2024-03-06T13:23:53;41.15;;;21.10;;
549;SDS011;20066;48.764;9.176;2024-03-06T13:26:21;40.35;;;21.27;;
549;SDS011;20066;48.764;9.176;2024-03-06T13:28:49;40.03;;;20.15;;
549;SDS011;20066;48.764;9.176;2024-03-06T13:31:17;40.15;;;21.10;;
549;SDS011;20066;48.764;9.176;2024-03-06T13:33:45;38.78;;;18.80;;
549;SDS011;20066;48.764;9.176;2024-03-06T13:36:13;37.95;;;20.23;;
549;SDS011;20066;48.764;9.176;2024-03-06T13:38:41;38.85;;;19.45;;
549;SDS011;20066;48.764;9.176;2024-03-06T13:41:11;36.85;;;18.73;;
549;SDS011;20066;48.764;9.176;2024-03-06T13:43:39;36.70;;;19.08;;
549;SDS011;20066;48.764;9.176;2024-03-06T13:46:07;42.08;;;18.48;;
549;SDS011;20066;48.764;9.176;2024-03-06T13:48:35;37.22;;;19.13;;
549;SDS011;20066;48.764;9.176;2024-03-06T13:51:04;42.70;;;21.20;;
549;SDS011;20066;48.764;9.176;2024-03-06T13:53:33;36.13;;;18.98;;
549;SDS011;20066;48.764;9.176;2024-03-06T13:56:00;42.75;;;19.15;;
549;SDS011;20066;48.764;9.176;2024-03-06T13:58:30;37.92;;;19.15;;
549;SDS011;20066;48.764;9.176;2024-03-06T14:00:58;37.78;;;18.50;;
549;SDS011;20066;48.764;9.176;2024-03-06T14:03:26;40.35;;;20.15;;
549;SDS011;20066;48.764;9.176;2024-03-06T14:05:54;43.38;;;19.67;;
549;SDS011;20066;48.764;9.176;2024-03-06T14:08:22;41.33;;;18.15;;
549;SDS011;20066;48.764;9.176;2024-03-06T14:10:51;37.50;;;18.70;;
549;SDS011;20066;48.764;9.176;2024-03-06T14:13:20;40.88;;;20.45;;
549;SDS011;20066;48.764;9.176;2024-03-06T14:15:49;46.38;;;20.70;;
549;SDS011;20066;48.764;9.176;2024-03-06T14:18:17;45.38;;;20.35;;
549;SDS011;20066;48.764;9.176;2024-03-06T14:20:44;43.88;;;20.60;;
549;SDS011;20066;48.764;9.176;2024-03-06T14:23:12;42.08;;;20.90;;
549;SDS011;20066;48.764;9.176;2024-03-06T14:25:40;42.08;;;21.10;;
549;SDS011;20066;48.764;9.176;2024-03-06T14:28:08;40.88;;;19.50;;
549;SDS011;20066;48.764;9.176;2024-03-06T14:30:36;44.22;;;21.60;;
549;SDS011;20066;48.764;9.176;2024-03-06T14:33:06;42.67;;;21.45;;
549;SDS011;20066;48.764;9.176;2024-03-06T14:35:34;43.05;;;20.70;;
549;SDS011;20066;48.764;9.176;2024-03-06T14:38:02;45.15;;;22.40;;
549;SDS011;20066;48.764;9.176;2024-03-06T14:40:30;50.90;;;22.13;;
549;SDS011;20066;48.764;9.176;2024-03-06T14:43:00;46.30;;;20.33;;
549;SDS011;20066;48.764;9.176;2024-03-06T14:45:28;49.35;;;22.33;;
549;SDS011;20066;48.764;9.176;2024-03-06T14:47:56;43.40;;;21.08;;
549;SDS011;20066;48.764;9.176;2024-03-06T14:50:26;44.03;;;20.48;;
549;SDS011;20066;48.764;9.176;2024-03-06T14:52:54;46.47;;;21.40;;
549;SDS011;20066;48.764;9.176;2024-03-06T14:55:23;46.95;;;22.58;;
549;SDS011;20066;48.764;9.176;2024-03-06T14:57:51;49.65;;;20.63;;
549;SDS011;20066;48.764;9.176;2024-03-06T15:00:19;44.95;;;19.83;;
549;SDS011;20066;48.764;9.176;2024-03-06T15:02:47;38.55;;;18.75;;
549;SDS011;20066;48.764;9.176;2024-03-06T15:05:16;42.33;;;19.50;;
549;SDS011;20066;48.764;9.176;2024-03-06T15:07:45;42.65;;;18.02;;
549;SDS011;20066;48.764;9.176;2024-03-06T15:10:13;42.85;;;20.10;;
549;SDS011;20066;48.764;9.176;2024-03-06T15:12:40;36.58;;;18.08;;
549;SDS011;20066;48.764;9.176;2024-03-06T15:15:09;45.85;;;18.45;;
549;SDS011;20066;48.764;9.176;2024-03-06T15:17:38;44.40;;;19.35;;
549;SDS011;20066;48.764;9.176;2024-03-06T15:20:07;41.40;;;19.05;;
549;SDS011;20066;48.764;9.176;2024-03-06T15:22:36;42.75;;;19.77;;
549;SDS011;20066;48.764;9.176;2024-03-06T15:25:09;43.40;;;19.30;;